createdAt,value
2023-04-14T00:04:54.036Z,65.28
2023-04-14T00:09:46.530Z,65.90
2023-04-14T00:14:38.617Z,66.40
2023-04-14T00:19:30.731Z,66.66
2023-04-14T00:24:22.685Z,67.15
2023-04-14T00:29:14.608Z,67.25
2023-04-14T00:34:07.079Z,67.27
2023-04-14T00:39:00.677Z,67.56
2023-04-14T00:43:55.898Z,67.14
2023-04-14T00:48:48.116Z,66.71
2023-04-14T00:53:41.164Z,68.21
2023-04-14T00:58:33.366Z,68.33
2023-04-14T01:03:26.559Z,68.72
2023-04-14T01:08:20.051Z,68.39
2023-04-14T01:13:33.798Z,68.77
2023-04-14T01:18:57.705Z,68.26
2023-04-14T01:24:22.374Z,68.36
2023-04-14T01:29:25.111Z,69.66
2023-04-14T01:34:25.583Z,71.14
2023-04-14T01:39:21.194Z,71.05
2023-04-14T01:44:16.721Z,71.47
2023-04-14T01:49:10.360Z,71.75
2023-04-14T01:54:05.639Z,72.48
2023-04-14T01:58:58.831Z,72.14
2023-04-14T02:03:52.061Z,72.34
2023-04-14T02:08:47.289Z,72.42
2023-04-14T02:13:41.551Z,72.75
2023-04-14T02:18:34.458Z,73.23
2023-04-14T02:23:26.559Z,73.01
2023-04-14T02:28:22.143Z,73.19
2023-04-14T02:33:22.163Z,73.38
2023-04-14T02:38:20.868Z,73.77
2023-04-14T02:43:18.002Z,75.00
2023-04-14T02:48:16.272Z,73.93
2023-04-14T02:53:10.462Z,73.60
2023-04-14T02:58:03.398Z,72.87
2023-04-14T03:03:04.153Z,72.76
2023-04-14T03:07:57.688Z,73.07
2023-04-14T03:12:53.978Z,72.42
2023-04-14T03:17:54.423Z,73.25
2023-04-14T03:22:58.795Z,72.35
2023-04-14T03:27:54.018Z,72.45
2023-04-14T03:32:48.062Z,72.28
2023-04-14T03:38:01.544Z,71.84
2023-04-14T03:42:55.877Z,72.93
2023-04-14T03:47:48.803Z,73.22
2023-04-14T03:52:45.338Z,72.46
2023-04-14T03:57:39.679Z,73.42
2023-04-14T04:02:32.346Z,73.93
2023-04-14T04:07:26.288Z,73.96
2023-04-14T04:12:20.745Z,73.74
2023-04-14T04:17:15.012Z,74.87
2023-04-14T04:22:09.585Z,75.17
2023-04-14T04:27:02.034Z,76.72
2023-04-14T04:31:55.963Z,76.97
2023-04-14T04:36:51.123Z,76.13
2023-04-14T04:41:43.346Z,75.69
2023-04-14T06:16:50.288Z,42.40
2023-04-14T06:21:42.293Z,39.16
2023-04-14T06:26:34.337Z,37.76
2023-04-14T06:31:26.367Z,36.28
2023-04-14T06:36:18.296Z,34.36
2023-04-14T06:41:10.018Z,32.78
2023-04-14T06:46:02.634Z,31.77
2023-04-14T06:50:56.142Z,31.74
2023-04-14T06:55:51.936Z,31.92
2023-04-14T07:00:43.740Z,29.46
2023-04-14T07:05:35.502Z,27.36
2023-04-14T07:10:27.295Z,26.55
2023-04-14T07:15:19.245Z,26.49
2023-04-14T07:20:11.576Z,25.49
2023-04-14T07:25:03.505Z,25.49
2023-04-14T07:29:55.306Z,24.69
2023-04-14T07:34:47.023Z,25.07
2023-04-14T07:39:38.807Z,24.02
2023-04-14T07:44:30.774Z,24.96
2023-04-14T07:49:22.691Z,23.81
2023-04-14T07:54:15.172Z,23.88
2023-04-14T07:59:07.011Z,23.22
2023-04-14T08:03:59.017Z,24.08
2023-04-14T08:08:50.875Z,23.62
2023-04-14T08:13:43.897Z,22.84
2023-04-14T08:18:36.778Z,22.64
2023-04-14T08:23:28.562Z,22.12
2023-04-14T08:28:20.312Z,22.92
2023-04-14T08:33:12.285Z,22.62
2023-04-14T08:38:04.134Z,23.83
2023-04-14T08:42:57.124Z,25.32
2023-04-14T08:47:52.128Z,24.52
2023-04-14T08:52:46.163Z,24.36
2023-04-14T08:57:38.558Z,23.57
2023-04-14T09:02:32.520Z,24.49
2023-04-14T09:07:24.779Z,27.90
2023-04-14T09:12:17.840Z,25.67
2023-04-14T09:17:09.749Z,24.74
2023-04-14T09:22:01.575Z,24.29
2023-04-14T09:26:53.376Z,25.83
2023-04-14T09:31:45.912Z,27.08
2023-04-14T09:36:37.713Z,28.23
2023-04-14T09:41:30.419Z,27.99
2023-04-14T09:46:22.580Z,28.43
2023-04-14T09:51:14.551Z,29.08
2023-04-14T09:56:09.689Z,29.45
2023-04-14T10:01:15.091Z,29.17
2023-04-14T10:06:17.269Z,30.97
2023-04-14T10:11:19.675Z,32.25
2023-04-14T10:16:11.644Z,32.38
2023-04-14T10:21:04.449Z,32.95
2023-04-14T10:25:57.796Z,32.95
2023-04-14T10:30:52.298Z,32.75
2023-04-14T10:35:46.628Z,33.22
2023-04-14T10:40:51.525Z,33.61
2023-04-14T10:45:56.276Z,33.38
2023-04-14T10:50:51.308Z,32.08
2023-04-14T10:55:52.258Z,30.58
2023-04-14T11:00:44.456Z,32.15
2023-04-14T11:05:41.891Z,30.23
2023-04-14T11:10:34.083Z,29.34
2023-04-14T11:15:43.913Z,28.92
2023-04-14T11:20:40.530Z,28.61
2023-04-14T11:25:35.744Z,28.10
2023-04-14T11:30:29.964Z,27.55
2023-04-14T11:35:24.973Z,28.72
2023-04-14T11:40:19.572Z,28.87
2023-04-14T11:45:16.570Z,29.03
2023-04-14T12:02:33.535Z,25.83
2023-04-14T12:07:30.375Z,26.22
2023-04-14T12:12:28.812Z,28.86
2023-04-14T12:17:24.737Z,28.05
2023-04-14T12:22:28.239Z,29.22
2023-04-14T12:27:23.729Z,28.03
2023-04-14T12:32:17.213Z,27.06
2023-04-14T12:37:11.599Z,26.87
2023-04-14T12:42:05.434Z,25.86
2023-04-14T12:46:59.776Z,25.09
2023-04-14T12:51:53.495Z,26.82
2023-04-14T12:56:45.900Z,26.05
2023-04-14T13:01:46.441Z,25.96
2023-04-14T13:06:39.062Z,25.36
2023-04-14T13:11:31.758Z,25.35
2023-04-14T13:16:27.260Z,26.51
2023-04-14T13:21:19.642Z,26.69
2023-04-14T13:26:12.685Z,24.50
2023-04-14T13:31:04.547Z,23.99
2023-04-14T13:35:56.586Z,23.22
2023-04-14T13:40:48.467Z,24.97
2023-04-14T13:45:40.428Z,24.59
2023-04-14T13:50:32.423Z,23.24
2023-04-14T13:55:24.478Z,23.44
2023-04-14T14:00:16.570Z,23.29
2023-04-14T14:05:11.817Z,23.66
2023-04-14T14:10:05.268Z,23.83
2023-04-14T14:14:57.166Z,24.06
2023-04-14T14:19:49.076Z,23.68
2023-04-14T14:24:41.069Z,22.84
2023-04-14T14:29:35.013Z,22.62
2023-04-14T14:34:31.911Z,23.59
2023-04-14T14:39:26.792Z,21.98
2023-04-14T14:44:18.585Z,21.83
2023-04-14T14:49:10.552Z,22.75
2023-04-14T14:54:09.723Z,22.19
2023-04-14T14:59:03.275Z,22.77
2023-04-14T15:03:55.080Z,21.37
2023-04-14T15:08:49.155Z,21.28
2023-04-14T15:13:41.177Z,22.49
2023-04-14T15:18:33.200Z,23.79
2023-04-14T15:23:25.061Z,23.80
2023-04-14T15:28:17.348Z,24.62
2023-04-14T15:33:09.108Z,23.87
2023-04-14T15:38:01.012Z,24.79
2023-04-14T15:42:54.125Z,24.81
2023-04-14T15:47:46.607Z,24.25
2023-04-14T15:52:39.880Z,24.53
2023-04-14T15:57:32.041Z,24.87
2023-04-14T16:02:24.210Z,24.75
2023-04-14T16:07:16.047Z,25.36
2023-04-14T16:12:07.965Z,24.67
2023-04-14T16:16:59.809Z,25.28
2023-04-14T16:21:52.012Z,24.92
2023-04-14T16:26:45.004Z,25.87
2023-04-14T16:31:37.265Z,26.15
2023-04-14T16:36:29.200Z,26.28
2023-04-14T16:41:21.367Z,26.55
2023-04-14T16:46:13.228Z,27.38
2023-04-14T16:51:09.351Z,26.91
2023-04-14T16:56:08.464Z,26.98
2023-04-14T17:01:00.701Z,26.28
2023-04-14T17:05:52.531Z,26.65
2023-04-14T17:10:44.384Z,26.27
2023-04-14T17:15:36.180Z,26.42
2023-04-14T17:20:28.367Z,26.85
2023-04-14T17:25:20.923Z,26.83
2023-04-14T17:30:12.911Z,27.37
2023-04-14T17:35:05.961Z,27.31
2023-04-14T17:39:59.117Z,27.94
2023-04-14T17:44:51.138Z,28.06
2023-04-14T17:49:44.110Z,28.41
2023-04-14T17:54:46.519Z,28.36
2023-04-14T17:59:42.528Z,28.87
2023-04-14T18:04:39.171Z,28.92
2023-04-14T18:09:31.194Z,29.91
2023-04-14T18:14:23.033Z,30.30
2023-04-14T18:19:15.004Z,30.74
2023-04-14T18:29:03.072Z,31.09
2023-04-14T18:33:55.385Z,31.44
2023-04-14T18:38:47.310Z,31.47
2023-04-14T18:43:39.757Z,34.23
2023-04-14T18:48:31.847Z,33.55
2023-04-14T18:53:28.831Z,34.83
2023-04-14T18:58:20.662Z,34.63
2023-04-14T19:03:12.594Z,36.46
2023-04-14T19:08:05.044Z,37.60
2023-04-14T19:12:57.319Z,37.71
2023-04-14T19:17:49.743Z,38.27
2023-04-14T19:22:42.137Z,38.81
2023-04-14T19:27:36.380Z,39.39
2023-04-14T19:32:28.408Z,40.03
2023-04-14T19:37:25.273Z,41.57
2023-04-14T19:42:17.253Z,41.81
2023-04-14T19:47:09.087Z,42.97
2023-04-14T19:52:01.811Z,43.68
2023-04-14T19:56:54.569Z,44.01
2023-04-14T20:01:47.514Z,46.14
2023-04-14T20:06:40.702Z,44.55
2023-04-14T20:11:32.741Z,41.17
2023-04-14T20:16:24.641Z,40.57
2023-04-14T20:21:16.935Z,40.97
2023-04-14T20:26:10.976Z,41.92
2023-04-14T20:31:03.551Z,42.27
2023-04-14T20:35:55.655Z,42.58
2023-04-14T20:40:47.602Z,43.28
2023-04-14T20:45:40.084Z,43.66
2023-04-14T20:50:33.424Z,44.41
2023-04-14T20:55:26.836Z,44.23
2023-04-14T21:00:19.000Z,44.62
2023-04-14T21:05:11.970Z,44.22
2023-04-14T21:10:06.938Z,44.40
2023-04-14T21:15:29.229Z,45.12
2023-04-14T21:20:11.717Z,45.29
2023-04-14T21:25:03.979Z,45.77
2023-04-14T21:29:56.095Z,45.44
2023-04-14T21:34:48.575Z,45.68
2023-04-14T21:39:40.658Z,45.96
2023-04-14T21:44:32.555Z,46.20
2023-04-14T21:49:24.539Z,46.46
2023-04-14T21:54:16.592Z,46.33
2023-04-14T21:59:08.643Z,46.38
2023-04-14T22:04:01.003Z,47.13
2023-04-14T22:08:52.893Z,47.67
2023-04-14T22:13:45.112Z,47.02
2023-04-14T22:18:38.927Z,47.38
2023-04-14T22:23:30.782Z,47.60
2023-04-14T22:28:22.669Z,47.59
2023-04-14T22:33:14.645Z,47.91
2023-04-14T22:38:07.020Z,47.83
2023-04-14T22:42:58.780Z,48.02
2023-04-14T22:47:50.982Z,48.47
2023-04-14T22:52:42.734Z,49.00
2023-04-14T22:57:34.538Z,48.50
2023-04-14T23:02:27.221Z,48.18
2023-04-14T23:07:19.886Z,49.07
2023-04-14T23:12:11.590Z,49.49
2023-04-14T23:17:03.564Z,49.33
2023-04-14T23:21:55.334Z,49.93
2023-04-14T23:26:47.198Z,50.76
2023-04-14T23:31:39.116Z,52.89
2023-04-14T23:36:31.853Z,53.84
2023-04-14T23:41:24.252Z,53.79
2023-04-14T23:46:16.310Z,54.58
2023-04-14T23:51:16.203Z,54.59
2023-04-14T23:56:10.704Z,55.04
